createdAt,value
2022-11-29T00:01:32.926Z,24.00
2022-11-29T00:04:01.130Z,23.17
2022-11-29T00:06:31.619Z,23.48
2022-11-29T00:09:06.164Z,25.42
2022-11-29T00:11:56.612Z,21.98
2022-11-29T00:14:24.694Z,23.27
2022-11-29T00:16:54.324Z,22.35
2022-11-29T00:19:22.476Z,20.95
2022-11-29T00:21:52.270Z,20.92
2022-11-29T00:24:22.070Z,23.63
2022-11-29T00:26:49.898Z,23.38
2022-11-29T00:29:18.811Z,22.85
2022-11-29T00:31:46.156Z,23.90
2022-11-29T00:34:15.799Z,22.92
2022-11-29T00:36:43.157Z,21.25
2022-11-29T00:39:13.942Z,23.17
2022-11-29T00:41:41.300Z,25.23
2022-11-29T00:44:15.331Z,26.77
2022-11-29T00:46:48.246Z,26.58
2022-11-29T00:49:15.674Z,24.15
2022-11-29T00:51:42.950Z,27.02
2022-11-29T00:54:12.610Z,23.02
2022-11-29T00:56:39.873Z,26.38
2022-11-29T00:59:07.155Z,23.42
2022-11-29T01:01:36.841Z,20.13
2022-11-29T01:04:04.502Z,20.15
2022-11-29T01:06:31.779Z,22.23
2022-11-29T01:08:59.027Z,19.23
2022-11-29T01:11:27.628Z,18.83
2022-11-29T01:13:58.070Z,20.38
2022-11-29T01:16:26.316Z,19.55
2022-11-29T01:18:53.610Z,20.67
2022-11-29T01:21:23.487Z,21.27
2022-11-29T01:23:56.769Z,19.13
2022-11-29T01:26:27.794Z,23.55
2022-11-29T01:28:56.753Z,23.20
2022-11-29T01:31:36.277Z,20.88
2022-11-29T01:34:05.172Z,20.85
2022-11-29T01:36:36.592Z,22.73
2022-11-29T01:39:05.419Z,21.17
2022-11-29T01:41:35.030Z,22.25
2022-11-29T01:44:28.010Z,20.85
2022-11-29T01:46:56.249Z,23.67
2022-11-29T01:49:30.774Z,22.48
2022-11-29T01:52:01.018Z,21.10
2022-11-29T01:54:30.074Z,20.90
2022-11-29T01:56:59.443Z,21.95
2022-11-29T01:59:30.207Z,20.98
2022-11-29T02:02:04.248Z,19.50
2022-11-29T02:04:37.920Z,19.23
2022-11-29T02:07:08.044Z,19.88
2022-11-29T02:09:37.662Z,17.67
2022-11-29T02:12:21.359Z,21.02
2022-11-29T02:15:10.143Z,19.98
2022-11-29T02:17:52.206Z,19.30
2022-11-29T02:20:52.783Z,19.85
2022-11-29T02:23:39.569Z,21.85
2022-11-29T02:26:24.734Z,20.02
2022-11-29T02:29:08.501Z,20.67
2022-11-29T02:32:00.310Z,21.00
2022-11-29T02:34:53.108Z,20.25
2022-11-29T02:38:03.314Z,23.40
2022-11-29T02:40:51.438Z,24.35
2022-11-29T02:43:37.409Z,21.63
2022-11-29T02:46:24.084Z,21.88
2022-11-29T02:49:00.809Z,24.13
2022-11-29T02:52:00.221Z,23.60
2022-11-29T02:54:53.278Z,21.73
2022-11-29T02:57:43.374Z,22.52
2022-11-29T03:00:13.701Z,24.27
2022-11-29T03:02:55.992Z,21.83
2022-11-29T03:05:29.090Z,27.45
2022-11-29T03:08:35.906Z,25.35
2022-11-29T03:11:40.846Z,25.02
2022-11-29T03:14:25.101Z,24.85
2022-11-29T03:17:23.780Z,27.20
2022-11-29T03:19:51.075Z,26.77
2022-11-29T03:22:42.976Z,26.52
2022-11-29T03:25:18.558Z,26.48
2022-11-29T03:27:57.603Z,28.58
2022-11-29T03:30:25.025Z,27.23
2022-11-29T03:33:25.624Z,25.98
2022-11-29T03:36:10.461Z,28.58
2022-11-29T03:38:47.874Z,27.58
2022-11-29T03:41:38.116Z,27.23
2022-11-29T03:44:53.062Z,29.23
2022-11-29T03:47:28.305Z,28.58
2022-11-29T03:50:05.329Z,26.70
2022-11-29T03:52:35.902Z,30.02
2022-11-29T03:55:29.194Z,29.33
2022-11-29T03:58:06.067Z,28.52
2022-11-29T04:00:53.578Z,29.65
2022-11-29T04:03:55.480Z,29.15
2022-11-29T04:06:36.603Z,26.30
2022-11-29T04:09:28.061Z,29.27
2022-11-29T04:12:10.087Z,28.73
2022-11-29T04:15:05.017Z,27.67
2022-11-29T04:17:50.696Z,28.35
2022-11-29T04:20:43.102Z,27.05
2022-11-29T04:23:47.995Z,27.23
2022-11-29T04:26:39.008Z,32.63
2022-11-29T04:29:27.532Z,29.33
2022-11-29T04:32:10.222Z,30.98
2022-11-29T04:34:56.133Z,28.02
2022-11-29T04:37:23.341Z,28.25
2022-11-29T04:40:25.113Z,29.77
2022-11-29T04:43:13.928Z,30.35
2022-11-29T04:45:56.319Z,28.17
2022-11-29T04:48:29.391Z,32.05
2022-11-29T04:51:04.133Z,27.63
2022-11-29T04:53:38.078Z,31.48
2022-11-29T04:56:29.108Z,26.85
2022-11-29T04:59:24.141Z,31.92
2022-11-29T05:02:23.086Z,26.58
2022-11-29T05:04:59.398Z,30.10
2022-11-29T05:07:54.228Z,31.35
2022-11-29T05:10:36.690Z,33.20
2022-11-29T05:13:28.193Z,32.63
2022-11-29T05:15:55.564Z,30.55
2022-11-29T05:18:47.199Z,28.60
2022-11-29T05:21:19.389Z,30.73
2022-11-29T05:24:05.907Z,30.02
2022-11-29T05:26:46.148Z,27.95
2022-11-29T05:29:30.910Z,28.70
2022-11-29T05:32:17.420Z,28.90
2022-11-29T05:34:59.391Z,28.42
2022-11-29T05:40:46.552Z,29.48
2022-11-29T05:43:16.700Z,31.40
2022-11-29T05:45:52.479Z,29.90
2022-11-29T05:48:45.275Z,28.67
2022-11-29T05:51:32.186Z,30.95
2022-11-29T05:54:21.000Z,29.90
2022-11-29T05:57:09.859Z,30.75
2022-11-29T05:59:39.047Z,28.58
2022-11-29T06:02:27.492Z,30.42
2022-11-29T06:05:04.098Z,28.67
2022-11-29T06:07:53.691Z,29.83
2022-11-29T06:10:33.035Z,30.85
2022-11-29T06:13:10.756Z,29.27
2022-11-29T06:15:44.063Z,33.92
2022-11-29T06:18:26.070Z,30.95
2022-11-29T06:23:29.911Z,32.28
2022-11-29T06:26:25.237Z,31.83
2022-11-29T06:29:19.338Z,31.50
2022-11-29T06:32:15.925Z,28.73
2022-11-29T06:35:35.760Z,29.42
2022-11-29T06:38:27.635Z,32.15
2022-11-29T06:41:01.881Z,30.92
2022-11-29T06:43:33.687Z,32.80
2022-11-29T06:46:26.882Z,31.70
2022-11-29T06:49:03.630Z,31.48
2022-11-29T06:51:58.635Z,34.85
2022-11-29T06:54:41.109Z,33.38
2022-11-29T06:57:28.755Z,30.65
2022-11-29T07:00:28.459Z,34.10
2022-11-29T07:03:14.449Z,34.88
2022-11-29T07:05:46.518Z,31.65
2022-11-29T07:08:19.997Z,33.45
2022-11-29T07:10:50.135Z,32.88
2022-11-29T07:13:18.978Z,32.45
2022-11-29T07:15:54.634Z,31.38
2022-11-29T07:18:48.279Z,37.05
2022-11-29T07:21:27.117Z,32.83
2022-11-29T07:24:27.626Z,32.75
2022-11-29T07:27:07.265Z,34.28
2022-11-29T07:29:52.268Z,33.28
2022-11-29T07:32:28.534Z,33.08
2022-11-29T07:35:19.921Z,29.92
2022-11-29T07:38:14.794Z,32.50
2022-11-29T07:41:05.535Z,32.75
2022-11-29T07:44:05.371Z,31.50
2022-11-29T07:46:34.939Z,32.20
2022-11-29T07:49:02.214Z,33.38
2022-11-29T07:51:29.612Z,35.38
2022-11-29T07:53:56.942Z,33.35
2022-11-29T07:56:24.261Z,34.25
2022-11-29T07:58:51.577Z,34.95
2022-11-29T08:01:18.916Z,31.95
2022-11-29T08:03:46.259Z,34.05
2022-11-29T08:06:13.622Z,33.78
2022-11-29T08:08:44.148Z,31.13
2022-11-29T08:11:12.962Z,31.87
2022-11-29T08:13:40.219Z,34.05
2022-11-29T08:16:07.814Z,34.05
2022-11-29T08:18:36.860Z,36.15
2022-11-29T08:21:07.642Z,35.38
2022-11-29T08:23:37.459Z,33.75
2022-11-29T08:26:04.851Z,33.17
2022-11-29T08:28:32.146Z,34.00
2022-11-29T08:31:06.618Z,34.00
2022-11-29T08:33:42.438Z,33.65
2022-11-29T08:36:15.242Z,36.08
2022-11-29T08:38:42.741Z,35.25
2022-11-29T08:41:12.595Z,35.17
2022-11-29T08:43:40.384Z,35.50
2022-11-29T08:46:07.956Z,33.80
2022-11-29T08:48:36.904Z,33.75
2022-11-29T08:51:05.994Z,35.10
2022-11-29T08:53:42.197Z,35.92
2022-11-29T08:56:53.315Z,38.80
2022-11-29T08:59:00.801Z,35.88
2022-11-29T09:01:29.387Z,33.95
2022-11-29T09:04:00.025Z,35.70
2022-11-29T09:06:40.469Z,36.40
2022-11-29T09:09:07.839Z,34.38
2022-11-29T09:11:36.040Z,34.63
2022-11-29T09:14:08.664Z,34.25
2022-11-29T09:16:37.768Z,33.92
2022-11-29T09:19:05.784Z,34.75
2022-11-29T09:21:36.607Z,33.75
2022-11-29T09:24:09.337Z,34.60
2022-11-29T09:26:38.100Z,33.83
2022-11-29T09:29:06.568Z,33.38
2022-11-29T09:31:35.059Z,30.85
2022-11-29T09:34:02.620Z,30.13
2022-11-29T09:36:33.130Z,35.15
2022-11-29T09:39:02.858Z,31.60
2022-11-29T09:41:33.070Z,29.05
2022-11-29T09:44:33.159Z,31.42
2022-11-29T09:47:19.370Z,33.00
2022-11-29T09:50:09.963Z,35.22
2022-11-29T09:52:51.949Z,34.10
2022-11-29T09:57:50.583Z,32.10
2022-11-29T10:00:22.448Z,29.27
2022-11-29T10:05:50.273Z,34.88
2022-11-29T10:08:41.890Z,32.05
2022-11-29T10:11:21.898Z,30.70
2022-11-29T10:14:02.962Z,31.98
2022-11-29T10:17:08.989Z,32.28
2022-11-29T10:19:52.949Z,32.92
2022-11-29T10:22:53.546Z,32.17
2022-11-29T10:25:25.893Z,31.58
2022-11-29T10:27:53.939Z,32.10
2022-11-29T10:30:21.634Z,32.80
2022-11-29T10:32:57.763Z,31.27
2022-11-29T10:35:30.538Z,33.28
2022-11-29T10:38:31.761Z,30.38
2022-11-29T10:40:52.606Z,30.52
2022-11-29T10:43:20.424Z,35.53
2022-11-29T10:45:53.478Z,31.10
2022-11-29T10:48:22.993Z,30.40
2022-11-29T10:50:52.033Z,31.70
2022-11-29T10:53:36.139Z,31.35
2022-11-29T10:56:17.513Z,34.15
2022-11-29T10:59:07.960Z,31.17
2022-11-29T11:01:42.388Z,33.20
2022-11-29T11:04:22.379Z,38.38
2022-11-29T11:06:57.977Z,28.35
2022-11-29T11:09:35.079Z,28.60
2022-11-29T11:12:16.890Z,30.80
2022-11-29T11:14:45.105Z,31.00
2022-11-29T11:17:26.104Z,26.65
2022-11-29T11:20:04.550Z,30.17
2022-11-29T11:22:36.300Z,28.20
2022-11-29T11:27:37.471Z,26.80
2022-11-29T11:30:07.015Z,29.88
2022-11-29T11:32:34.323Z,31.73
2022-11-29T11:35:02.532Z,29.00
2022-11-29T11:37:35.782Z,28.67
2022-11-29T11:40:29.127Z,31.00
2022-11-29T11:43:02.055Z,35.10
2022-11-29T11:45:36.689Z,32.97
2022-11-29T11:48:15.094Z,30.40
2022-11-29T11:50:52.535Z,32.67
2022-11-29T11:53:36.443Z,28.52
2022-11-29T11:56:12.990Z,33.58
2022-11-29T11:58:53.287Z,33.70
2022-11-29T12:01:27.193Z,29.20
2022-11-29T12:04:15.243Z,33.50
2022-11-29T12:06:52.237Z,28.77
2022-11-29T12:09:19.531Z,29.77
2022-11-29T12:12:00.212Z,30.85
2022-11-29T12:14:42.579Z,30.40
2022-11-29T12:17:22.815Z,28.95
2022-11-29T12:20:04.475Z,31.05
2022-11-29T12:22:46.595Z,31.38
2022-11-29T12:25:21.888Z,29.08
2022-11-29T12:27:50.359Z,28.73
2022-11-29T12:30:19.134Z,29.65
2022-11-29T12:33:20.516Z,30.52
2022-11-29T12:36:07.518Z,28.85
2022-11-29T12:39:01.543Z,32.25
2022-11-29T12:41:40.608Z,31.13
2022-11-29T12:44:35.500Z,34.83
2022-11-29T12:47:38.165Z,28.77
2022-11-29T12:50:50.398Z,29.40
2022-11-29T12:53:36.100Z,30.17
2022-11-29T12:56:27.245Z,27.75
2022-11-29T12:59:33.297Z,30.63
2022-11-29T13:02:09.487Z,28.88
2022-11-29T13:04:52.680Z,31.15
2022-11-29T13:07:25.092Z,28.30
2022-11-29T13:10:18.433Z,29.10
2022-11-29T13:13:07.670Z,27.75
2022-11-29T13:16:08.762Z,27.80
2022-11-29T13:19:01.707Z,30.08
2022-11-29T13:21:37.624Z,28.98
2022-11-29T13:24:16.553Z,28.98
2022-11-29T13:26:44.694Z,29.63
2022-11-29T13:29:18.201Z,28.73
2022-11-29T13:31:50.136Z,29.38
2022-11-29T13:34:28.987Z,30.35
2022-11-29T13:37:08.052Z,31.17
2022-11-29T13:39:47.126Z,30.23
2022-11-29T13:42:24.144Z,29.83
2022-11-29T13:45:28.379Z,30.05
2022-11-29T13:47:59.430Z,28.90
2022-11-29T13:50:40.262Z,31.05
2022-11-29T13:53:23.606Z,32.67
2022-11-29T13:56:01.362Z,31.27
2022-11-29T13:58:28.733Z,27.95
2022-11-29T14:01:07.046Z,26.63
2022-11-29T14:03:48.994Z,27.02
2022-11-29T14:09:17.719Z,26.80
2022-11-29T14:11:42.598Z,32.97
2022-11-29T14:14:31.535Z,29.42
2022-11-29T14:17:00.936Z,31.20
2022-11-29T14:19:33.680Z,27.65
2022-11-29T14:22:07.141Z,30.10
2022-11-29T14:24:37.317Z,27.58
2022-11-29T14:27:10.352Z,30.50
2022-11-29T14:29:49.524Z,31.73
2022-11-29T14:32:33.175Z,29.60
2022-11-29T14:35:12.514Z,30.63
2022-11-29T14:38:01.136Z,31.90
2022-11-29T14:40:40.674Z,29.60
2022-11-29T14:43:23.050Z,26.60
2022-11-29T14:46:26.173Z,31.08
2022-11-29T14:48:56.341Z,31.75
2022-11-29T14:51:28.866Z,32.63
2022-11-29T14:54:16.610Z,33.15
2022-11-29T14:56:45.529Z,29.88
2022-11-29T14:59:51.274Z,30.88
2022-11-29T15:02:37.533Z,30.85
2022-11-29T15:05:19.494Z,28.65
2022-11-29T15:10:38.785Z,30.80
2022-11-29T15:13:11.390Z,28.67
2022-11-29T15:16:09.327Z,32.05
2022-11-29T15:18:42.738Z,30.58
2022-11-29T15:21:34.702Z,30.77
2022-11-29T15:24:06.838Z,29.40
2022-11-29T15:26:36.526Z,29.90
2022-11-29T15:29:18.859Z,33.78
2022-11-29T15:31:51.634Z,28.25
2022-11-29T15:34:23.008Z,32.38
2022-11-29T15:36:50.278Z,30.80
2022-11-29T15:39:35.295Z,28.75
2022-11-29T15:42:22.677Z,30.60
2022-11-29T15:44:53.561Z,32.15
2022-11-29T15:47:25.586Z,28.23
2022-11-29T15:49:54.227Z,29.50
2022-11-29T15:52:35.799Z,32.15
2022-11-29T15:55:06.486Z,31.63
2022-11-29T15:57:43.138Z,30.45
2022-11-29T16:00:24.281Z,33.42
2022-11-29T16:02:54.306Z,31.23
2022-11-29T16:05:25.274Z,31.70
2022-11-29T16:08:00.149Z,31.15
2022-11-29T16:10:40.913Z,36.63
2022-11-29T16:13:31.443Z,37.47
2022-11-29T16:16:19.745Z,35.63
2022-11-29T16:18:48.657Z,31.45
2022-11-29T16:21:28.949Z,32.90
2022-11-29T16:23:57.161Z,33.53
2022-11-29T16:26:36.103Z,30.83
2022-11-29T16:29:03.888Z,35.95
2022-11-29T16:31:34.112Z,34.17
2022-11-29T16:34:27.541Z,35.55
2022-11-29T16:37:14.920Z,36.33
2022-11-29T16:39:46.935Z,34.40
2022-11-29T16:42:18.288Z,34.72
2022-11-29T16:44:50.118Z,32.00
2022-11-29T16:47:25.735Z,32.83
2022-11-29T16:50:02.354Z,31.10
2022-11-29T16:52:32.308Z,31.80
2022-11-29T16:55:04.618Z,33.20
2022-11-29T16:57:32.202Z,34.58
2022-11-29T16:59:59.518Z,33.30
2022-11-29T17:02:29.894Z,35.03
2022-11-29T17:05:02.017Z,35.47
2022-11-29T17:07:36.841Z,34.28
2022-11-29T17:10:11.825Z,32.67
2022-11-29T17:12:42.217Z,32.65
2022-11-29T17:15:13.755Z,37.95
2022-11-29T17:17:43.458Z,34.80
2022-11-29T17:20:12.857Z,34.08
2022-11-29T17:22:40.525Z,33.55
2022-11-29T17:25:08.419Z,38.92
2022-11-29T17:27:36.054Z,39.08
2022-11-29T17:30:05.499Z,36.90
2022-11-29T17:32:35.809Z,37.95
2022-11-29T17:35:03.288Z,37.38
2022-11-29T17:37:31.491Z,37.92
2022-11-29T17:40:03.805Z,35.90
2022-11-29T17:42:33.340Z,35.25
2022-11-29T17:45:00.677Z,37.85
2022-11-29T17:47:30.285Z,33.72
2022-11-29T17:49:58.119Z,37.55
2022-11-29T17:52:25.401Z,38.75
2022-11-29T17:54:52.652Z,38.00
2022-11-29T17:57:19.969Z,39.08
2022-11-29T17:59:47.476Z,35.72
2022-11-29T18:02:17.471Z,34.67
2022-11-29T18:04:44.765Z,37.92
2022-11-29T18:07:13.276Z,37.58
2022-11-29T18:09:43.403Z,38.95
2022-11-29T18:12:10.901Z,38.17
2022-11-29T18:14:39.012Z,35.08
2022-11-29T18:17:06.324Z,34.17
2022-11-29T18:19:33.923Z,32.88
2022-11-29T18:22:02.721Z,37.42
2022-11-29T18:24:29.950Z,36.17
2022-11-29T18:26:57.242Z,35.83
2022-11-29T18:29:28.705Z,34.72
2022-11-29T18:31:58.748Z,33.92
2022-11-29T18:34:28.357Z,33.95
2022-11-29T18:36:55.634Z,34.95
2022-11-29T18:39:24.942Z,30.65
2022-11-29T18:41:52.285Z,32.08
2022-11-29T18:44:30.092Z,38.30
2022-11-29T18:46:57.844Z,34.33
2022-11-29T18:49:25.111Z,32.47
2022-11-29T18:51:52.594Z,34.88
2022-11-29T18:54:22.158Z,37.78
2022-11-29T18:56:50.698Z,35.83
2022-11-29T18:59:18.143Z,34.67
2022-11-29T19:01:49.333Z,32.85
2022-11-29T19:04:21.088Z,37.92
2022-11-29T19:09:21.726Z,36.25
2022-11-29T19:11:49.872Z,36.15
2022-11-29T19:14:17.893Z,33.25
2022-11-29T19:16:47.434Z,34.92
2022-11-29T19:19:14.903Z,35.50
2022-11-29T19:21:45.018Z,34.83
2022-11-29T19:24:14.665Z,35.83
2022-11-29T19:26:47.010Z,35.08
2022-11-29T19:29:14.709Z,34.63
2022-11-29T19:31:42.532Z,34.55
2022-11-29T19:34:10.382Z,32.58
2022-11-29T19:36:42.580Z,31.30
2022-11-29T19:39:12.856Z,34.08
2022-11-29T19:41:43.347Z,33.88
2022-11-29T19:44:10.909Z,34.22
2022-11-29T19:46:44.033Z,33.08
2022-11-29T19:49:12.074Z,30.95
2022-11-29T19:51:39.460Z,31.83
2022-11-29T19:54:09.058Z,34.38
2022-11-29T19:56:36.755Z,32.85
2022-11-29T19:59:04.099Z,32.17
2022-11-29T20:01:40.880Z,34.22
2022-11-29T20:04:10.061Z,36.00
2022-11-29T20:06:37.640Z,36.25
2022-11-29T20:09:04.960Z,34.75
2022-11-29T20:11:32.290Z,36.38
2022-11-29T20:14:01.358Z,34.17
2022-11-29T20:16:30.559Z,38.38
2022-11-29T20:18:59.043Z,37.40
2022-11-29T20:21:29.069Z,38.67
2022-11-29T20:23:57.902Z,36.60
2022-11-29T20:26:27.068Z,35.70
2022-11-29T20:28:54.523Z,42.85
2022-11-29T20:31:22.999Z,38.25
2022-11-29T20:33:52.884Z,37.47
2022-11-29T20:36:58.160Z,33.92
2022-11-29T20:39:48.257Z,35.30
2022-11-29T20:43:02.105Z,36.08
2022-11-29T20:45:29.834Z,31.95
2022-11-29T20:48:03.823Z,33.22
2022-11-29T20:50:32.186Z,31.17
2022-11-29T20:53:25.254Z,30.33
2022-11-29T20:55:52.578Z,31.42
2022-11-29T20:58:19.999Z,30.27
2022-11-29T21:00:49.526Z,29.65
2022-11-29T21:03:18.616Z,29.27
2022-11-29T21:05:46.203Z,27.38
2022-11-29T21:08:14.977Z,28.00
2022-11-29T21:10:42.354Z,29.65
2022-11-29T21:13:11.750Z,27.45
2022-11-29T21:15:42.014Z,27.05
2022-11-29T21:18:26.320Z,27.13
2022-11-29T21:21:16.368Z,27.58
2022-11-29T21:24:02.470Z,27.85
2022-11-29T21:26:41.796Z,26.50
2022-11-29T21:29:18.357Z,28.50
2022-11-29T21:31:47.898Z,29.20
2022-11-29T21:34:15.388Z,27.42
2022-11-29T21:36:44.034Z,30.10
2022-11-29T21:39:14.818Z,28.75
2022-11-29T21:41:42.228Z,29.00
2022-11-29T21:44:09.608Z,28.63
2022-11-29T21:46:37.054Z,28.33
2022-11-29T21:49:08.840Z,30.25
2022-11-29T21:54:03.359Z,27.30
2022-11-29T21:56:30.853Z,30.60
2022-11-29T21:58:58.184Z,29.77
2022-11-29T22:01:27.525Z,29.80
2022-11-29T22:03:59.850Z,25.60
2022-11-29T22:06:30.287Z,28.08
2022-11-29T22:08:57.626Z,30.55
2022-11-29T22:11:31.117Z,26.83
2022-11-29T22:14:17.089Z,27.17
2022-11-29T22:16:47.430Z,29.40
2022-11-29T22:19:17.521Z,28.85
2022-11-29T22:21:47.432Z,27.38
2022-11-29T22:24:19.083Z,27.15
2022-11-29T22:26:50.185Z,27.20
2022-11-29T22:29:17.967Z,29.42
2022-11-29T22:31:47.354Z,27.95
2022-11-29T22:34:14.885Z,30.08
2022-11-29T22:36:42.686Z,29.25
2022-11-29T22:39:10.149Z,29.33
2022-11-29T22:41:39.338Z,29.10
2022-11-29T22:44:07.055Z,28.48
2022-11-29T22:46:37.585Z,30.00
2022-11-29T22:49:05.004Z,27.40
2022-11-29T22:51:34.903Z,29.33
2022-11-29T22:54:05.194Z,28.15
2022-11-29T22:56:35.345Z,28.90
2022-11-29T22:59:03.489Z,26.42
2022-11-29T23:01:33.578Z,27.27
2022-11-29T23:04:03.963Z,29.05
2022-11-29T23:06:33.914Z,30.02
2022-11-29T23:09:22.442Z,26.60
2022-11-29T23:11:54.283Z,26.77
2022-11-29T23:14:22.753Z,29.65
2022-11-29T23:16:52.579Z,28.10
2022-11-29T23:19:20.709Z,29.67
2022-11-29T23:21:48.086Z,29.73
2022-11-29T23:24:15.814Z,31.13
2022-11-29T23:26:45.653Z,29.17
2022-11-29T23:29:20.565Z,29.27
2022-11-29T23:31:48.308Z,29.38
2022-11-29T23:34:16.072Z,27.90
2022-11-29T23:36:51.181Z,29.73
2022-11-29T23:39:20.608Z,32.58
2022-11-29T23:41:47.939Z,30.13
2022-11-29T23:44:15.184Z,27.25
2022-11-29T23:46:42.467Z,28.27
2022-11-29T23:49:09.712Z,29.27
2022-11-29T23:51:39.091Z,30.90
2022-11-29T23:54:08.961Z,29.40
2022-11-29T23:56:36.235Z,28.88
2022-11-29T23:59:03.559Z,29.15
